Terminal Aerodrome Forecast
Issued by NWS

Home | Current Version | Previous Version | Text Only | Print | Product List | Glossary On
Versions: 1 2 3 4 5 6 7 8 9 10 11 12 13 14 15 16 17 18 19 20 21 22 23 24 25
000
FTUS41 KBUF 092104 AAA
TAFJHW
TAF AMD
KJHW 092104Z 0921/1018 30012KT 2SM -SN BKN015
     FM092200 29009KT 3/4SM -SN OVC015
     FM100000 29009KT 3SM -SN OVC015
     FM101100 27008KT 3SM -SN OVC015
     FM101200 26008KT 1/2SM SN OVC015
     FM101500 27008KT 1/2SM SHSN OVC015
      AMD LTD TO CLD VIS AND WIND=

USA.gov is the U.S. government's official web portal to all federal, state and local government web resources and services.